sensor_id;sensor_type;location;lat;lon;timestamp;P1;durP1;ratioP1;P2;durP2;ratioP2
82637;SDS011;72318;36.628;-121.932;2023-09-18T00:01:14;6.18;;;3.78;;
82637;SDS011;72318;36.628;-121.932;2023-09-18T00:03:40;9.75;;;4.50;;
82637;SDS011;72318;36.628;-121.932;2023-09-18T00:06:07;9.02;;;4.38;;
82637;SDS011;72318;36.628;-121.932;2023-09-18T00:08:34;7.55;;;4.03;;
82637;SDS011;72318;36.628;-121.932;2023-09-18T00:11:00;10.43;;;4.80;;
82637;SDS011;72318;36.628;-121.932;2023-09-18T00:13:26;6.22;;;4.07;;
82637;SDS011;72318;36.628;-121.932;2023-09-18T00:15:55;6.88;;;4.10;;
82637;SDS011;72318;36.628;-121.932;2023-09-18T00:18:25;8.48;;;4.07;;
82637;SDS011;72318;36.628;-121.932;2023-09-18T00:20:51;9.63;;;5.15;;
82637;SDS011;72318;36.628;-121.932;2023-09-18T00:23:18;8.43;;;4.10;;
82637;SDS011;72318;36.628;-121.932;2023-09-18T00:25:44;9.15;;;4.25;;
82637;SDS011;72318;36.628;-121.932;2023-09-18T00:28:10;7.72;;;5.20;;
82637;SDS011;72318;36.628;-121.932;2023-09-18T00:30:37;11.00;;;4.63;;
82637;SDS011;72318;36.628;-121.932;2023-09-18T00:33:10;7.65;;;4.85;;
82637;SDS011;72318;36.628;-121.932;2023-09-18T00:35:36;9.43;;;5.07;;
82637;SDS011;72318;36.628;-121.932;2023-09-18T00:38:03;8.93;;;5.03;;
82637;SDS011;72318;36.628;-121.932;2023-09-18T00:40:31;10.30;;;4.13;;
82637;SDS011;72318;36.628;-121.932;2023-09-18T00:42:57;7.40;;;4.78;;
82637;SDS011;72318;36.628;-121.932;2023-09-18T00:45:23;7.97;;;4.65;;
82637;SDS011;72318;36.628;-121.932;2023-09-18T00:47:49;7.68;;;4.43;;
82637;SDS011;72318;36.628;-121.932;2023-09-18T00:50:16;10.07;;;4.72;;
82637;SDS011;72318;36.628;-121.932;2023-09-18T00:52:42;9.77;;;4.63;;
82637;SDS011;72318;36.628;-121.932;2023-09-18T00:55:09;8.70;;;5.03;;
82637;SDS011;72318;36.628;-121.932;2023-09-18T00:57:39;8.77;;;4.63;;
82637;SDS011;72318;36.628;-121.932;2023-09-18T01:00:09;10.45;;;5.25;;
82637;SDS011;72318;36.628;-121.932;2023-09-18T01:02:40;11.05;;;4.78;;
82637;SDS011;72318;36.628;-121.932;2023-09-18T01:05:07;11.27;;;5.47;;
82637;SDS011;72318;36.628;-121.932;2023-09-18T01:07:33;10.50;;;5.03;;
82637;SDS011;72318;36.628;-121.932;2023-09-18T01:09:59;10.25;;;4.53;;
82637;SDS011;72318;36.628;-121.932;2023-09-18T01:17:34;7.35;;;4.13;;
82637;SDS011;72318;36.628;-121.932;2023-09-18T01:20:16;9.80;;;4.57;;
82637;SDS011;72318;36.628;-121.932;2023-09-18T01:22:42;11.57;;;4.55;;
82637;SDS011;72318;36.628;-121.932;2023-09-18T01:25:08;10.38;;;4.85;;
82637;SDS011;72318;36.628;-121.932;2023-09-18T01:27:35;13.80;;;5.13;;
82637;SDS011;72318;36.628;-121.932;2023-09-18T01:30:02;7.30;;;4.35;;
82637;SDS011;72318;36.628;-121.932;2023-09-18T01:32:29;9.60;;;4.75;;
82637;SDS011;72318;36.628;-121.932;2023-09-18T01:34:59;11.02;;;5.63;;
82637;SDS011;72318;36.628;-121.932;2023-09-18T01:37:29;10.68;;;6.28;;
82637;SDS011;72318;36.628;-121.932;2023-09-18T01:39:56;9.88;;;5.30;;
82637;SDS011;72318;36.628;-121.932;2023-09-18T01:42:24;10.98;;;5.13;;
82637;SDS011;72318;36.628;-121.932;2023-09-18T01:44:54;9.32;;;4.82;;
82637;SDS011;72318;36.628;-121.932;2023-09-18T01:47:21;11.30;;;5.35;;
82637;SDS011;72318;36.628;-121.932;2023-09-18T01:49:52;10.95;;;5.00;;
82637;SDS011;72318;36.628;-121.932;2023-09-18T01:52:18;8.65;;;5.28;;
82637;SDS011;72318;36.628;-121.932;2023-09-18T01:54:44;13.70;;;5.32;;
82637;SDS011;72318;36.628;-121.932;2023-09-18T01:57:11;12.20;;;5.03;;
82637;SDS011;72318;36.628;-121.932;2023-09-18T01:59:37;11.15;;;4.88;;
82637;SDS011;72318;36.628;-121.932;2023-09-18T02:02:04;9.95;;;5.05;;
82637;SDS011;72318;36.628;-121.932;2023-09-18T02:04:33;12.60;;;5.47;;
82637;SDS011;72318;36.628;-121.932;2023-09-18T02:07:00;11.38;;;5.40;;
82637;SDS011;72318;36.628;-121.932;2023-09-18T02:09:26;13.45;;;5.60;;
82637;SDS011;72318;36.628;-121.932;2023-09-18T02:11:52;11.27;;;5.85;;
82637;SDS011;72318;36.628;-121.932;2023-09-18T02:14:18;11.73;;;5.85;;
82637;SDS011;72318;36.628;-121.932;2023-09-18T02:16:45;11.32;;;6.25;;
82637;SDS011;72318;36.628;-121.932;2023-09-18T02:19:12;14.27;;;5.57;;
82637;SDS011;72318;36.628;-121.932;2023-09-18T02:21:43;17.40;;;6.32;;
82637;SDS011;72318;36.628;-121.932;2023-09-18T02:24:09;16.40;;;5.63;;
82637;SDS011;72318;36.628;-121.932;2023-09-18T02:26:35;11.45;;;5.13;;
82637;SDS011;72318;36.628;-121.932;2023-09-18T02:29:08;15.00;;;5.28;;
82637;SDS011;72318;36.628;-121.932;2023-09-18T02:31:39;18.00;;;5.65;;
82637;SDS011;72318;36.628;-121.932;2023-09-18T02:34:06;16.42;;;6.05;;
82637;SDS011;72318;36.628;-121.932;2023-09-18T02:36:35;19.67;;;6.97;;
82637;SDS011;72318;36.628;-121.932;2023-09-18T02:39:01;19.05;;;5.80;;
82637;SDS011;72318;36.628;-121.932;2023-09-18T02:41:28;16.77;;;6.10;;
82637;SDS011;72318;36.628;-121.932;2023-09-18T02:43:54;23.13;;;6.35;;
82637;SDS011;72318;36.628;-121.932;2023-09-18T02:46:20;22.40;;;6.28;;
82637;SDS011;72318;36.628;-121.932;2023-09-18T02:48:46;20.58;;;6.60;;
82637;SDS011;72318;36.628;-121.932;2023-09-18T02:51:13;21.17;;;7.18;;
82637;SDS011;72318;36.628;-121.932;2023-09-18T02:53:39;19.92;;;6.60;;
82637;SDS011;72318;36.628;-121.932;2023-09-18T02:56:09;21.52;;;7.47;;
82637;SDS011;72318;36.628;-121.932;2023-09-18T02:58:35;21.23;;;7.63;;
82637;SDS011;72318;36.628;-121.932;2023-09-18T03:01:01;12.60;;;6.88;;
82637;SDS011;72318;36.628;-121.932;2023-09-18T03:03:29;15.07;;;7.05;;
82637;SDS011;72318;36.628;-121.932;2023-09-18T03:06:00;11.00;;;6.30;;
82637;SDS011;72318;36.628;-121.932;2023-09-18T03:08:28;13.73;;;6.72;;
82637;SDS011;72318;36.628;-121.932;2023-09-18T03:10:54;11.55;;;7.28;;
82637;SDS011;72318;36.628;-121.932;2023-09-18T03:13:21;11.73;;;6.88;;
82637;SDS011;72318;36.628;-121.932;2023-09-18T03:15:47;13.95;;;7.43;;
82637;SDS011;72318;36.628;-121.932;2023-09-18T03:18:14;10.80;;;6.30;;
82637;SDS011;72318;36.628;-121.932;2023-09-18T03:20:40;14.48;;;8.60;;
82637;SDS011;72318;36.628;-121.932;2023-09-18T03:23:06;15.88;;;8.43;;
82637;SDS011;72318;36.628;-121.932;2023-09-18T03:25:33;13.73;;;6.93;;
82637;SDS011;72318;36.628;-121.932;2023-09-18T03:27:59;11.00;;;7.63;;
82637;SDS011;72318;36.628;-121.932;2023-09-18T03:30:25;12.63;;;8.10;;
82637;SDS011;72318;36.628;-121.932;2023-09-18T03:32:52;13.48;;;8.30;;
82637;SDS011;72318;36.628;-121.932;2023-09-18T03:35:19;11.80;;;8.35;;
82637;SDS011;72318;36.628;-121.932;2023-09-18T03:37:45;12.75;;;7.18;;
82637;SDS011;72318;36.628;-121.932;2023-09-18T03:40:16;15.45;;;8.52;;
82637;SDS011;72318;36.628;-121.932;2023-09-18T03:42:44;13.25;;;8.25;;
82637;SDS011;72318;36.628;-121.932;2023-09-18T03:45:10;12.52;;;6.78;;
82637;SDS011;72318;36.628;-121.932;2023-09-18T03:47:38;14.73;;;7.18;;
82637;SDS011;72318;36.628;-121.932;2023-09-18T03:50:06;10.98;;;6.88;;
82637;SDS011;72318;36.628;-121.932;2023-09-18T03:52:33;17.35;;;7.47;;
82637;SDS011;72318;36.628;-121.932;2023-09-18T03:54:59;13.38;;;8.30;;
82637;SDS011;72318;36.628;-121.932;2023-09-18T03:57:26;15.65;;;8.27;;
82637;SDS011;72318;36.628;-121.932;2023-09-18T03:59:52;10.75;;;6.93;;
82637;SDS011;72318;36.628;-121.932;2023-09-18T04:02:18;10.95;;;6.55;;
82637;SDS011;72318;36.628;-121.932;2023-09-18T04:04:46;14.55;;;7.40;;
82637;SDS011;72318;36.628;-121.932;2023-09-18T04:07:12;11.40;;;7.50;;
82637;SDS011;72318;36.628;-121.932;2023-09-18T04:09:41;16.13;;;7.05;;
82637;SDS011;72318;36.628;-121.932;2023-09-18T04:12:08;13.10;;;7.88;;
82637;SDS011;72318;36.628;-121.932;2023-09-18T04:14:35;14.05;;;7.03;;
82637;SDS011;72318;36.628;-121.932;2023-09-18T04:17:01;10.88;;;6.35;;
82637;SDS011;72318;36.628;-121.932;2023-09-18T04:19:28;14.30;;;7.22;;
82637;SDS011;72318;36.628;-121.932;2023-09-18T04:21:54;13.25;;;6.85;;
82637;SDS011;72318;36.628;-121.932;2023-09-18T04:24:21;10.88;;;6.57;;
82637;SDS011;72318;36.628;-121.932;2023-09-18T04:26:48;11.25;;;5.82;;
82637;SDS011;72318;36.628;-121.932;2023-09-18T04:29:18;12.10;;;5.97;;
82637;SDS011;72318;36.628;-121.932;2023-09-18T04:31:47;10.35;;;5.80;;
82637;SDS011;72318;36.628;-121.932;2023-09-18T04:34:14;7.95;;;5.43;;
82637;SDS011;72318;36.628;-121.932;2023-09-18T04:36:40;11.93;;;5.40;;
82637;SDS011;72318;36.628;-121.932;2023-09-18T04:39:07;11.73;;;6.43;;
82637;SDS011;72318;36.628;-121.932;2023-09-18T04:41:34;12.38;;;5.43;;
82637;SDS011;72318;36.628;-121.932;2023-09-18T04:44:00;11.25;;;5.93;;
82637;SDS011;72318;36.628;-121.932;2023-09-18T04:46:28;10.48;;;5.78;;
82637;SDS011;72318;36.628;-121.932;2023-09-18T04:48:55;9.68;;;5.72;;
82637;SDS011;72318;36.628;-121.932;2023-09-18T04:51:21;11.18;;;6.32;;
82637;SDS011;72318;36.628;-121.932;2023-09-18T04:53:47;13.98;;;6.45;;
82637;SDS011;72318;36.628;-121.932;2023-09-18T04:56:14;17.05;;;6.78;;
82637;SDS011;72318;36.628;-121.932;2023-09-18T04:58:40;10.43;;;6.50;;
82637;SDS011;72318;36.628;-121.932;2023-09-18T05:01:06;11.05;;;6.38;;
82637;SDS011;72318;36.628;-121.932;2023-09-18T05:03:33;13.63;;;6.88;;
82637;SDS011;72318;36.628;-121.932;2023-09-18T05:06:00;11.20;;;6.32;;
82637;SDS011;72318;36.628;-121.932;2023-09-18T05:08:28;10.32;;;6.18;;
82637;SDS011;72318;36.628;-121.932;2023-09-18T05:10:54;12.77;;;6.75;;
82637;SDS011;72318;36.628;-121.932;2023-09-18T05:13:20;13.15;;;6.88;;
82637;SDS011;72318;36.628;-121.932;2023-09-18T05:15:47;11.48;;;5.15;;
82637;SDS011;72318;36.628;-121.932;2023-09-18T05:18:13;11.27;;;5.60;;
82637;SDS011;72318;36.628;-121.932;2023-09-18T05:20:39;11.20;;;5.70;;
82637;SDS011;72318;36.628;-121.932;2023-09-18T05:23:05;13.13;;;6.32;;
82637;SDS011;72318;36.628;-121.932;2023-09-18T05:25:32;9.10;;;5.28;;
82637;SDS011;72318;36.628;-121.932;2023-09-18T05:28:01;6.78;;;4.50;;
82637;SDS011;72318;36.628;-121.932;2023-09-18T05:30:34;11.10;;;5.50;;
82637;SDS011;72318;36.628;-121.932;2023-09-18T05:33:04;10.05;;;5.75;;
82637;SDS011;72318;36.628;-121.932;2023-09-18T05:35:40;9.30;;;5.07;;
82637;SDS011;72318;36.628;-121.932;2023-09-18T05:38:08;10.63;;;4.88;;
82637;SDS011;72318;36.628;-121.932;2023-09-18T05:40:39;14.23;;;5.75;;
82637;SDS011;72318;36.628;-121.932;2023-09-18T05:43:05;15.77;;;6.30;;
82637;SDS011;72318;36.628;-121.932;2023-09-18T05:45:33;9.00;;;4.88;;
82637;SDS011;72318;36.628;-121.932;2023-09-18T05:47:59;13.23;;;5.95;;
82637;SDS011;72318;36.628;-121.932;2023-09-18T05:50:32;12.57;;;6.72;;
82637;SDS011;72318;36.628;-121.932;2023-09-18T05:53:01;15.02;;;6.65;;
82637;SDS011;72318;36.628;-121.932;2023-09-18T05:55:29;9.57;;;5.03;;
82637;SDS011;72318;36.628;-121.932;2023-09-18T05:57:56;12.80;;;5.45;;
82637;SDS011;72318;36.628;-121.932;2023-09-18T06:00:23;15.02;;;6.18;;
82637;SDS011;72318;36.628;-121.932;2023-09-18T06:02:49;9.60;;;5.82;;
82637;SDS011;72318;36.628;-121.932;2023-09-18T06:05:28;10.40;;;6.15;;
82637;SDS011;72318;36.628;-121.932;2023-09-18T06:07:56;13.57;;;5.43;;
82637;SDS011;72318;36.628;-121.932;2023-09-18T06:10:22;12.05;;;5.10;;
82637;SDS011;72318;36.628;-121.932;2023-09-18T06:12:49;14.55;;;6.28;;
82637;SDS011;72318;36.628;-121.932;2023-09-18T06:15:15;14.27;;;6.55;;
82637;SDS011;72318;36.628;-121.932;2023-09-18T06:17:42;10.75;;;5.25;;
82637;SDS011;72318;36.628;-121.932;2023-09-18T06:20:09;14.18;;;6.55;;
82637;SDS011;72318;36.628;-121.932;2023-09-18T06:22:38;11.73;;;6.15;;
82637;SDS011;72318;36.628;-121.932;2023-09-18T06:25:05;10.00;;;6.15;;
82637;SDS011;72318;36.628;-121.932;2023-09-18T06:27:36;11.50;;;6.07;;
82637;SDS011;72318;36.628;-121.932;2023-09-18T06:30:03;10.77;;;7.38;;
82637;SDS011;72318;36.628;-121.932;2023-09-18T06:32:33;13.85;;;6.88;;
82637;SDS011;72318;36.628;-121.932;2023-09-18T06:35:02;11.25;;;5.93;;
82637;SDS011;72318;36.628;-121.932;2023-09-18T06:37:28;12.68;;;6.50;;
82637;SDS011;72318;36.628;-121.932;2023-09-18T06:39:55;12.82;;;6.05;;
82637;SDS011;72318;36.628;-121.932;2023-09-18T06:42:22;12.55;;;6.32;;
82637;SDS011;72318;36.628;-121.932;2023-09-18T06:44:48;10.70;;;5.72;;
82637;SDS011;72318;36.628;-121.932;2023-09-18T06:47:14;10.15;;;5.75;;
82637;SDS011;72318;36.628;-121.932;2023-09-18T06:49:41;9.50;;;6.25;;
82637;SDS011;72318;36.628;-121.932;2023-09-18T06:52:08;13.45;;;6.40;;
82637;SDS011;72318;36.628;-121.932;2023-09-18T06:54:35;12.18;;;5.63;;
82637;SDS011;72318;36.628;-121.932;2023-09-18T06:57:01;12.43;;;6.13;;
82637;SDS011;72318;36.628;-121.932;2023-09-18T06:59:28;11.07;;;5.95;;
82637;SDS011;72318;36.628;-121.932;2023-09-18T07:01:55;10.38;;;5.70;;
82637;SDS011;72318;36.628;-121.932;2023-09-18T07:04:23;10.95;;;5.30;;
82637;SDS011;72318;36.628;-121.932;2023-09-18T07:06:50;10.57;;;5.80;;
82637;SDS011;72318;36.628;-121.932;2023-09-18T07:09:19;10.05;;;5.60;;
82637;SDS011;72318;36.628;-121.932;2023-09-18T07:11:48;10.90;;;5.68;;
82637;SDS011;72318;36.628;-121.932;2023-09-18T07:14:15;10.70;;;5.18;;
82637;SDS011;72318;36.628;-121.932;2023-09-18T07:16:41;13.98;;;5.88;;
82637;SDS011;72318;36.628;-121.932;2023-09-18T07:19:07;13.38;;;5.47;;
82637;SDS011;72318;36.628;-121.932;2023-09-18T07:21:37;14.63;;;5.78;;
82637;SDS011;72318;36.628;-121.932;2023-09-18T07:24:05;15.07;;;5.53;;
82637;SDS011;72318;36.628;-121.932;2023-09-18T07:26:32;12.68;;;5.38;;
82637;SDS011;72318;36.628;-121.932;2023-09-18T07:28:59;13.73;;;5.25;;
82637;SDS011;72318;36.628;-121.932;2023-09-18T07:31:26;16.85;;;5.40;;
82637;SDS011;72318;36.628;-121.932;2023-09-18T07:33:52;11.13;;;6.15;;
82637;SDS011;72318;36.628;-121.932;2023-09-18T07:36:18;11.00;;;5.32;;
82637;SDS011;72318;36.628;-121.932;2023-09-18T07:38:45;12.80;;;5.40;;
82637;SDS011;72318;36.628;-121.932;2023-09-18T07:41:11;10.35;;;5.35;;
82637;SDS011;72318;36.628;-121.932;2023-09-18T07:43:37;11.75;;;5.25;;
82637;SDS011;72318;36.628;-121.932;2023-09-18T07:46:05;10.52;;;4.65;;
82637;SDS011;72318;36.628;-121.932;2023-09-18T07:48:31;11.05;;;5.38;;
82637;SDS011;72318;36.628;-121.932;2023-09-18T07:50:57;9.57;;;4.70;;
82637;SDS011;72318;36.628;-121.932;2023-09-18T07:53:24;9.57;;;4.55;;
82637;SDS011;72318;36.628;-121.932;2023-09-18T07:55:55;12.07;;;5.18;;
82637;SDS011;72318;36.628;-121.932;2023-09-18T07:58:27;9.27;;;4.78;;
82637;SDS011;72318;36.628;-121.932;2023-09-18T08:00:56;10.98;;;5.22;;
82637;SDS011;72318;36.628;-121.932;2023-09-18T08:03:23;12.68;;;4.70;;
82637;SDS011;72318;36.628;-121.932;2023-09-18T08:05:51;9.70;;;4.95;;
82637;SDS011;72318;36.628;-121.932;2023-09-18T08:08:18;7.75;;;4.78;;
82637;SDS011;72318;36.628;-121.932;2023-09-18T08:10:46;9.98;;;4.50;;
82637;SDS011;72318;36.628;-121.932;2023-09-18T08:13:12;8.95;;;4.78;;
82637;SDS011;72318;36.628;-121.932;2023-09-18T08:15:39;10.20;;;4.15;;
82637;SDS011;72318;36.628;-121.932;2023-09-18T08:18:05;10.27;;;4.65;;
82637;SDS011;72318;36.628;-121.932;2023-09-18T08:20:31;11.85;;;4.60;;
82637;SDS011;72318;36.628;-121.932;2023-09-18T08:22:58;7.45;;;3.40;;
82637;SDS011;72318;36.628;-121.932;2023-09-18T08:27:54;11.35;;;4.50;;
82637;SDS011;72318;36.628;-121.932;2023-09-18T08:30:23;12.68;;;4.47;;
82637;SDS011;72318;36.628;-121.932;2023-09-18T08:32:50;9.02;;;4.20;;
82637;SDS011;72318;36.628;-121.932;2023-09-18T08:35:16;9.98;;;3.90;;
82637;SDS011;72318;36.628;-121.932;2023-09-18T08:37:42;7.90;;;4.32;;
82637;SDS011;72318;36.628;-121.932;2023-09-18T08:40:12;9.55;;;3.80;;
82637;SDS011;72318;36.628;-121.932;2023-09-18T08:45:10;10.00;;;4.00;;
82637;SDS011;72318;36.628;-121.932;2023-09-18T08:47:44;8.88;;;3.67;;
82637;SDS011;72318;36.628;-121.932;2023-09-18T08:50:11;9.57;;;4.35;;
82637;SDS011;72318;36.628;-121.932;2023-09-18T08:52:38;12.70;;;4.97;;
82637;SDS011;72318;36.628;-121.932;2023-09-18T08:55:05;10.10;;;4.10;;
82637;SDS011;72318;36.628;-121.932;2023-09-18T08:57:32;11.75;;;4.50;;
82637;SDS011;72318;36.628;-121.932;2023-09-18T09:00:00;8.38;;;4.13;;
82637;SDS011;72318;36.628;-121.932;2023-09-18T09:02:32;9.40;;;4.53;;
82637;SDS011;72318;36.628;-121.932;2023-09-18T09:04:59;8.57;;;4.05;;
82637;SDS011;72318;36.628;-121.932;2023-09-18T09:07:25;9.65;;;4.40;;
82637;SDS011;72318;36.628;-121.932;2023-09-18T09:09:54;7.95;;;4.05;;
82637;SDS011;72318;36.628;-121.932;2023-09-18T09:13:05;7.70;;;3.60;;
82637;SDS011;72318;36.628;-121.932;2023-09-18T09:15:22;8.95;;;4.50;;
82637;SDS011;72318;36.628;-121.932;2023-09-18T09:18:15;8.68;;;3.40;;
82637;SDS011;72318;36.628;-121.932;2023-09-18T09:20:52;8.35;;;4.13;;
82637;SDS011;72318;36.628;-121.932;2023-09-18T09:23:22;10.60;;;4.53;;
82637;SDS011;72318;36.628;-121.932;2023-09-18T09:25:50;9.30;;;4.35;;
82637;SDS011;72318;36.628;-121.932;2023-09-18T09:28:25;13.75;;;4.32;;
82637;SDS011;72318;36.628;-121.932;2023-09-18T09:31:01;10.57;;;4.68;;
82637;SDS011;72318;36.628;-121.932;2023-09-18T09:33:28;9.50;;;4.43;;
82637;SDS011;72318;36.628;-121.932;2023-09-18T09:35:56;11.27;;;4.63;;
82637;SDS011;72318;36.628;-121.932;2023-09-18T09:38:29;12.02;;;4.55;;
82637;SDS011;72318;36.628;-121.932;2023-09-18T09:40:59;12.02;;;4.22;;
82637;SDS011;72318;36.628;-121.932;2023-09-18T09:43:27;11.35;;;4.75;;
82637;SDS011;72318;36.628;-121.932;2023-09-18T09:45:59;10.45;;;4.80;;
82637;SDS011;72318;36.628;-121.932;2023-09-18T09:48:26;12.05;;;4.90;;
82637;SDS011;72318;36.628;-121.932;2023-09-18T09:50:59;11.50;;;4.30;;
82637;SDS011;72318;36.628;-121.932;2023-09-18T09:53:42;9.88;;;4.43;;
82637;SDS011;72318;36.628;-121.932;2023-09-18T09:56:13;8.82;;;4.82;;
82637;SDS011;72318;36.628;-121.932;2023-09-18T09:58:44;9.57;;;4.55;;
82637;SDS011;72318;36.628;-121.932;2023-09-18T10:01:31;9.00;;;4.15;;
82637;SDS011;72318;36.628;-121.932;2023-09-18T10:03:57;9.60;;;4.18;;
82637;SDS011;72318;36.628;-121.932;2023-09-18T10:06:25;11.60;;;5.20;;
82637;SDS011;72318;36.628;-121.932;2023-09-18T10:08:55;10.27;;;4.60;;
82637;SDS011;72318;36.628;-121.932;2023-09-18T10:11:22;10.25;;;4.10;;
82637;SDS011;72318;36.628;-121.932;2023-09-18T10:13:53;13.05;;;4.47;;
82637;SDS011;72318;36.628;-121.932;2023-09-18T10:16:25;9.23;;;4.25;;
82637;SDS011;72318;36.628;-121.932;2023-09-18T10:19:00;9.00;;;4.50;;
82637;SDS011;72318;36.628;-121.932;2023-09-18T10:21:41;9.02;;;4.30;;
82637;SDS011;72318;36.628;-121.932;2023-09-18T10:24:24;6.68;;;4.13;;
82637;SDS011;72318;36.628;-121.932;2023-09-18T10:26:57;8.65;;;3.88;;
82637;SDS011;72318;36.628;-121.932;2023-09-18T10:29:24;8.80;;;4.63;;
82637;SDS011;72318;36.628;-121.932;2023-09-18T10:31:54;10.90;;;3.95;;
82637;SDS011;72318;36.628;-121.932;2023-09-18T10:34:21;11.00;;;4.38;;
82637;SDS011;72318;36.628;-121.932;2023-09-18T10:36:49;8.30;;;3.78;;
82637;SDS011;72318;36.628;-121.932;2023-09-18T10:39:17;8.25;;;3.92;;
82637;SDS011;72318;36.628;-121.932;2023-09-18T10:41:53;8.00;;;4.35;;
82637;SDS011;72318;36.628;-121.932;2023-09-18T10:44:21;7.13;;;3.47;;
82637;SDS011;72318;36.628;-121.932;2023-09-18T10:46:48;9.07;;;3.95;;
82637;SDS011;72318;36.628;-121.932;2023-09-18T10:49:17;8.07;;;4.00;;
82637;SDS011;72318;36.628;-121.932;2023-09-18T10:51:46;9.13;;;4.15;;
82637;SDS011;72318;36.628;-121.932;2023-09-18T10:54:19;8.50;;;3.85;;
82637;SDS011;72318;36.628;-121.932;2023-09-18T10:56:50;8.77;;;4.30;;
82637;SDS011;72318;36.628;-121.932;2023-09-18T10:59:18;8.27;;;4.63;;
82637;SDS011;72318;36.628;-121.932;2023-09-18T11:01:46;10.10;;;4.43;;
82637;SDS011;72318;36.628;-121.932;2023-09-18T11:04:19;12.13;;;5.32;;
82637;SDS011;72318;36.628;-121.932;2023-09-18T11:09:28;11.32;;;4.85;;
82637;SDS011;72318;36.628;-121.932;2023-09-18T11:20:10;9.40;;;4.60;;
82637;SDS011;72318;36.628;-121.932;2023-09-18T11:25:38;9.48;;;4.60;;
82637;SDS011;72318;36.628;-121.932;2023-09-18T11:30:50;7.70;;;4.40;;
82637;SDS011;72318;36.628;-121.932;2023-09-18T11:33:35;10.30;;;4.90;;
82637;SDS011;72318;36.628;-121.932;2023-09-18T11:36:04;9.93;;;4.32;;
82637;SDS011;72318;36.628;-121.932;2023-09-18T11:38:56;12.13;;;5.13;;
82637;SDS011;72318;36.628;-121.932;2023-09-18T11:41:29;11.82;;;4.95;;
82637;SDS011;72318;36.628;-121.932;2023-09-18T11:46:48;9.75;;;5.40;;
82637;SDS011;72318;36.628;-121.932;2023-09-18T11:49:21;12.40;;;5.22;;
82637;SDS011;72318;36.628;-121.932;2023-09-18T11:51:51;11.38;;;4.88;;
82637;SDS011;72318;36.628;-121.932;2023-09-18T11:54:19;10.27;;;4.35;;
82637;SDS011;72318;36.628;-121.932;2023-09-18T11:56:46;10.02;;;5.10;;
82637;SDS011;72318;36.628;-121.932;2023-09-18T11:59:12;14.77;;;4.60;;
82637;SDS011;72318;36.628;-121.932;2023-09-18T12:01:39;12.50;;;5.57;;
82637;SDS011;72318;36.628;-121.932;2023-09-18T12:04:05;12.85;;;5.30;;
82637;SDS011;72318;36.628;-121.932;2023-09-18T12:06:38;16.40;;;5.45;;
82637;SDS011;72318;36.628;-121.932;2023-09-18T12:09:05;16.13;;;5.20;;
82637;SDS011;72318;36.628;-121.932;2023-09-18T12:11:36;14.63;;;6.25;;
82637;SDS011;72318;36.628;-121.932;2023-09-18T12:14:07;12.40;;;5.68;;
82637;SDS011;72318;36.628;-121.932;2023-09-18T12:16:39;17.05;;;7.15;;
82637;SDS011;72318;36.628;-121.932;2023-09-18T12:19:06;19.08;;;7.18;;
82637;SDS011;72318;36.628;-121.932;2023-09-18T12:21:32;13.07;;;5.40;;
82637;SDS011;72318;36.628;-121.932;2023-09-18T12:24:05;20.30;;;7.20;;
82637;SDS011;72318;36.628;-121.932;2023-09-18T12:26:31;14.88;;;6.28;;
82637;SDS011;72318;36.628;-121.932;2023-09-18T12:28:58;16.05;;;7.20;;
82637;SDS011;72318;36.628;-121.932;2023-09-18T12:31:25;16.95;;;7.93;;
82637;SDS011;72318;36.628;-121.932;2023-09-18T12:33:51;109.00;;;10.07;;
82637;SDS011;72318;36.628;-121.932;2023-09-18T12:36:20;180.25;;;15.93;;
82637;SDS011;72318;36.628;-121.932;2023-09-18T12:38:56;48.35;;;9.43;;
82637;SDS011;72318;36.628;-121.932;2023-09-18T12:41:26;46.78;;;9.60;;
82637;SDS011;72318;36.628;-121.932;2023-09-18T12:43:53;191.27;;;15.00;;
82637;SDS011;72318;36.628;-121.932;2023-09-18T12:46:22;29.92;;;9.43;;
82637;SDS011;72318;36.628;-121.932;2023-09-18T12:48:48;26.98;;;8.23;;
82637;SDS011;72318;36.628;-121.932;2023-09-18T12:51:15;46.60;;;8.93;;
82637;SDS011;72318;36.628;-121.932;2023-09-18T12:53:47;40.00;;;8.85;;
82637;SDS011;72318;36.628;-121.932;2023-09-18T12:56:24;12.23;;;6.32;;
82637;SDS011;72318;36.628;-121.932;2023-09-18T12:58:59;75.95;;;9.02;;
82637;SDS011;72318;36.628;-121.932;2023-09-18T13:01:26;63.65;;;6.88;;
82637;SDS011;72318;36.628;-121.932;2023-09-18T13:03:53;55.90;;;9.40;;
82637;SDS011;72318;36.628;-121.932;2023-09-18T13:06:24;14.52;;;6.68;;
82637;SDS011;72318;36.628;-121.932;2023-09-18T13:08:51;33.65;;;7.03;;
82637;SDS011;72318;36.628;-121.932;2023-09-18T13:11:18;19.10;;;5.78;;
82637;SDS011;72318;36.628;-121.932;2023-09-18T13:13:44;20.00;;;6.22;;
82637;SDS011;72318;36.628;-121.932;2023-09-18T13:16:19;10.05;;;5.13;;
82637;SDS011;72318;36.628;-121.932;2023-09-18T13:18:48;15.32;;;5.30;;
82637;SDS011;72318;36.628;-121.932;2023-09-18T13:21:15;14.80;;;5.72;;
82637;SDS011;72318;36.628;-121.932;2023-09-18T13:23:41;98.07;;;8.40;;
82637;SDS011;72318;36.628;-121.932;2023-09-18T13:26:07;18.20;;;6.15;;
82637;SDS011;72318;36.628;-121.932;2023-09-18T13:28:34;21.15;;;6.28;;
82637;SDS011;72318;36.628;-121.932;2023-09-18T13:31:04;16.50;;;6.22;;
82637;SDS011;72318;36.628;-121.932;2023-09-18T13:33:32;18.00;;;6.20;;
82637;SDS011;72318;36.628;-121.932;2023-09-18T13:35:59;12.85;;;6.55;;
82637;SDS011;72318;36.628;-121.932;2023-09-18T13:38:25;13.65;;;6.03;;
82637;SDS011;72318;36.628;-121.932;2023-09-18T13:40:54;17.42;;;6.60;;
82637;SDS011;72318;36.628;-121.932;2023-09-18T13:43:21;27.60;;;6.75;;
82637;SDS011;72318;36.628;-121.932;2023-09-18T13:45:47;14.07;;;7.45;;
82637;SDS011;72318;36.628;-121.932;2023-09-18T13:48:17;39.08;;;7.75;;
82637;SDS011;72318;36.628;-121.932;2023-09-18T13:50:43;13.95;;;7.03;;
82637;SDS011;72318;36.628;-121.932;2023-09-18T13:53:12;11.20;;;5.15;;
82637;SDS011;72318;36.628;-121.932;2023-09-18T13:55:39;10.98;;;5.70;;
82637;SDS011;72318;36.628;-121.932;2023-09-18T13:58:05;12.20;;;7.70;;
82637;SDS011;72318;36.628;-121.932;2023-09-18T14:00:32;10.88;;;5.90;;
82637;SDS011;72318;36.628;-121.932;2023-09-18T14:02:58;13.88;;;6.47;;
82637;SDS011;72318;36.628;-121.932;2023-09-18T14:05:25;13.07;;;6.30;;
82637;SDS011;72318;36.628;-121.932;2023-09-18T14:07:52;11.15;;;6.40;;
82637;SDS011;72318;36.628;-121.932;2023-09-18T14:10:24;12.88;;;6.50;;
82637;SDS011;72318;36.628;-121.932;2023-09-18T14:12:52;11.85;;;5.78;;
82637;SDS011;72318;36.628;-121.932;2023-09-18T14:15:18;13.15;;;6.05;;
82637;SDS011;72318;36.628;-121.932;2023-09-18T14:17:44;14.05;;;6.88;;
82637;SDS011;72318;36.628;-121.932;2023-09-18T14:20:10;11.98;;;6.00;;
82637;SDS011;72318;36.628;-121.932;2023-09-18T14:22:37;12.00;;;6.70;;
82637;SDS011;72318;36.628;-121.932;2023-09-18T14:25:03;13.35;;;6.20;;
82637;SDS011;72318;36.628;-121.932;2023-09-18T14:27:31;13.35;;;7.18;;
82637;SDS011;72318;36.628;-121.932;2023-09-18T14:29:58;11.43;;;6.75;;
82637;SDS011;72318;36.628;-121.932;2023-09-18T14:32:24;15.88;;;7.82;;
82637;SDS011;72318;36.628;-121.932;2023-09-18T14:34:51;19.58;;;8.43;;